createdAt,value
2022-11-29T00:02:07.795Z,6.17
2022-11-29T00:04:37.033Z,6.19
2022-11-29T00:07:05.962Z,6.30
2022-11-29T00:09:34.852Z,6.21
2022-11-29T00:12:16.003Z,6.14
2022-11-29T00:14:45.035Z,5.83
2022-11-29T00:17:16.061Z,6.11
2022-11-29T00:19:45.186Z,6.10
2022-11-29T00:22:13.911Z,6.08
2022-11-29T00:24:43.393Z,5.98
2022-11-29T00:27:12.337Z,6.06
2022-11-29T00:29:41.458Z,6.11
2022-11-29T00:32:10.109Z,6.21
2022-11-29T00:34:40.787Z,6.16
2022-11-29T00:37:10.246Z,6.14
2022-11-29T00:39:39.373Z,6.07
2022-11-29T00:42:08.520Z,6.03
2022-11-29T00:44:37.510Z,6.13
2022-11-29T00:47:09.401Z,6.19
2022-11-29T00:49:40.325Z,6.21
2022-11-29T00:52:09.151Z,6.04
2022-11-29T00:54:38.112Z,6.01
2022-11-29T00:57:06.798Z,5.98
2022-11-29T00:59:35.576Z,6.01
2022-11-29T01:02:04.436Z,5.99
2022-11-29T01:04:33.380Z,5.98
2022-11-29T01:07:06.579Z,5.99
2022-11-29T01:09:35.495Z,6.08
2022-11-29T01:12:05.328Z,6.14
2022-11-29T01:14:34.679Z,6.13
2022-11-29T01:17:04.098Z,6.07
2022-11-29T01:19:32.862Z,6.00
2022-11-29T01:22:02.016Z,6.01
2022-11-29T01:24:34.556Z,5.98
2022-11-29T01:27:03.178Z,5.93
2022-11-29T01:29:32.592Z,5.91
2022-11-29T01:32:01.264Z,5.88
2022-11-29T01:34:34.078Z,5.93
2022-11-29T01:37:02.703Z,5.91
2022-11-29T01:39:35.349Z,5.92
2022-11-29T01:42:04.531Z,5.87
2022-11-29T01:45:01.883Z,5.87
2022-11-29T01:47:31.558Z,5.88
2022-11-29T01:50:00.964Z,5.86
2022-11-29T01:52:34.032Z,5.90
2022-11-29T01:55:06.788Z,5.91
2022-11-29T01:57:37.968Z,5.91
2022-11-29T02:00:11.312Z,5.73
2022-11-29T02:02:45.571Z,5.84
2022-11-29T02:05:18.309Z,5.82
2022-11-29T02:07:51.205Z,5.85
2022-11-29T02:10:23.515Z,5.82
2022-11-29T02:12:59.972Z,5.79
2022-11-29T02:15:41.655Z,5.78
2022-11-29T02:18:14.809Z,5.77
2022-11-29T02:21:12.272Z,5.74
2022-11-29T02:24:23.934Z,5.99
2022-11-29T02:27:29.071Z,5.95
2022-11-29T02:30:15.687Z,5.89
2022-11-29T02:33:15.697Z,5.84
2022-11-29T02:36:24.146Z,5.84
2022-11-29T02:39:08.975Z,5.81
2022-11-29T02:41:58.564Z,5.73
2022-11-29T02:44:51.110Z,5.70
2022-11-29T02:47:33.293Z,5.63
2022-11-29T02:50:18.630Z,5.62
2022-11-29T02:52:56.227Z,5.61
2022-11-29T02:55:34.820Z,5.63
2022-11-29T02:58:16.171Z,5.63
2022-11-29T03:00:53.360Z,5.64
2022-11-29T03:03:28.146Z,5.67
2022-11-29T03:06:09.271Z,5.65
2022-11-29T03:08:46.502Z,5.53
2022-11-29T03:11:25.381Z,5.69
2022-11-29T03:14:07.670Z,5.67
2022-11-29T03:16:44.698Z,5.70
2022-11-29T03:19:32.407Z,5.65
2022-11-29T03:22:12.043Z,5.64
2022-11-29T03:24:48.428Z,5.69
2022-11-29T03:27:22.320Z,5.61
2022-11-29T03:29:56.947Z,5.53
2022-11-29T03:32:31.258Z,5.53
2022-11-29T03:35:07.902Z,5.55
2022-11-29T03:37:47.236Z,5.51
2022-11-29T03:40:21.472Z,5.48
2022-11-29T03:42:57.698Z,5.47
2022-11-29T03:45:33.091Z,4.95
2022-11-29T03:48:08.522Z,5.55
2022-11-29T03:50:40.609Z,5.31
2022-11-29T03:53:21.324Z,5.49
2022-11-29T03:55:54.569Z,5.38
2022-11-29T03:58:40.366Z,5.51
2022-11-29T04:01:42.647Z,5.56
2022-11-29T04:04:40.077Z,5.45
2022-11-29T04:07:32.519Z,4.91
2022-11-29T04:10:17.718Z,5.63
2022-11-29T04:13:22.580Z,5.55
2022-11-29T04:16:19.322Z,5.60
2022-11-29T04:19:23.701Z,5.53
2022-11-29T04:22:29.002Z,5.57
2022-11-29T04:25:23.854Z,5.46
2022-11-29T04:28:14.631Z,5.62
2022-11-29T04:30:55.368Z,5.57
2022-11-29T04:33:50.031Z,5.55
2022-11-29T04:36:47.765Z,5.55
2022-11-29T04:39:50.839Z,5.60
2022-11-29T04:42:40.534Z,5.63
2022-11-29T04:45:36.173Z,5.59
2022-11-29T04:48:21.869Z,5.57
2022-11-29T04:51:04.477Z,5.65
2022-11-29T04:53:51.807Z,5.55
2022-11-29T04:56:32.600Z,5.56
2022-11-29T04:59:10.704Z,5.44
2022-11-29T05:01:55.859Z,5.55
2022-11-29T05:04:34.464Z,5.55
2022-11-29T05:07:09.543Z,5.57
2022-11-29T05:09:59.057Z,5.60
2022-11-29T05:12:34.511Z,5.56
2022-11-29T05:15:43.020Z,5.70
2022-11-29T05:18:23.887Z,5.48
2022-11-29T05:20:59.226Z,5.62
2022-11-29T05:23:50.301Z,5.65
2022-11-29T05:26:27.110Z,5.58
2022-11-29T05:29:04.538Z,5.62
2022-11-29T05:32:12.593Z,5.56
2022-11-29T05:34:53.265Z,5.56
2022-11-29T05:37:32.674Z,5.59
2022-11-29T05:40:28.805Z,5.61
2022-11-29T05:43:13.903Z,5.52
2022-11-29T05:45:53.582Z,5.60
2022-11-29T05:48:32.918Z,5.61
2022-11-29T05:51:20.979Z,5.61
2022-11-29T05:54:00.421Z,5.69
2022-11-29T05:56:41.435Z,5.59
2022-11-29T05:59:16.404Z,5.83
2022-11-29T06:01:53.460Z,5.79
2022-11-29T06:04:33.712Z,5.93
2022-11-29T06:07:13.030Z,5.30
2022-11-29T06:09:49.399Z,5.72
2022-11-29T06:12:21.993Z,5.62
2022-11-29T06:15:11.714Z,5.73
2022-11-29T06:18:09.095Z,5.63
2022-11-29T06:20:55.199Z,5.61
2022-11-29T06:23:48.469Z,5.59
2022-11-29T06:26:30.335Z,5.60
2022-11-29T06:29:19.277Z,5.60
2022-11-29T06:31:53.481Z,5.62
2022-11-29T06:34:34.878Z,5.70
2022-11-29T06:37:14.598Z,5.59
2022-11-29T06:39:44.058Z,5.51
2022-11-29T06:42:12.729Z,5.65
2022-11-29T06:44:44.927Z,5.60
2022-11-29T06:47:24.973Z,5.60
2022-11-29T06:50:03.674Z,4.77
2022-11-29T06:52:44.392Z,5.52
2022-11-29T06:55:18.675Z,5.63
2022-11-29T06:58:07.572Z,5.62
2022-11-29T07:00:50.554Z,5.59
2022-11-29T07:03:41.019Z,5.57
2022-11-29T07:06:16.504Z,5.59
2022-11-29T07:08:52.888Z,5.65
2022-11-29T07:11:22.802Z,5.67
2022-11-29T07:13:52.239Z,5.78
2022-11-29T07:16:28.340Z,5.45
2022-11-29T07:19:08.182Z,5.62
2022-11-29T07:21:47.119Z,5.75
2022-11-29T07:24:33.433Z,5.70
2022-11-29T07:27:13.807Z,5.66
2022-11-29T07:29:50.183Z,5.72
2022-11-29T07:32:28.311Z,4.61
2022-11-29T07:35:09.952Z,5.57
2022-11-29T07:37:50.002Z,5.58
2022-11-29T07:40:31.916Z,5.57
2022-11-29T07:43:19.878Z,5.58
2022-11-29T07:45:48.826Z,5.57
2022-11-29T07:48:19.067Z,5.57
2022-11-29T07:50:50.888Z,5.60
2022-11-29T07:53:21.154Z,5.60
2022-11-29T07:55:51.707Z,5.64
2022-11-29T07:58:20.544Z,5.62
2022-11-29T08:00:49.332Z,5.61
2022-11-29T08:03:20.431Z,5.71
2022-11-29T08:05:49.414Z,5.65
2022-11-29T08:08:20.345Z,5.77
2022-11-29T08:10:49.021Z,5.45
2022-11-29T08:13:22.282Z,5.49
2022-11-29T08:15:51.610Z,5.58
2022-11-29T08:18:20.257Z,5.57
2022-11-29T08:20:49.323Z,5.72
2022-11-29T08:23:21.000Z,5.73
2022-11-29T08:25:50.031Z,5.95
2022-11-29T08:28:18.711Z,5.86
2022-11-29T08:30:48.751Z,6.10
2022-11-29T08:33:17.408Z,5.99
2022-11-29T08:35:46.384Z,5.77
2022-11-29T08:38:15.196Z,5.67
2022-11-29T08:40:45.965Z,5.63
2022-11-29T08:43:14.693Z,5.66
2022-11-29T08:45:43.378Z,5.88
2022-11-29T08:48:14.969Z,5.74
2022-11-29T08:50:44.209Z,5.71
2022-11-29T08:53:30.293Z,5.68
2022-11-29T08:56:12.033Z,5.66
2022-11-29T08:58:51.101Z,6.22
2022-11-29T09:01:22.496Z,6.00
2022-11-29T09:04:02.930Z,5.91
2022-11-29T09:06:34.173Z,5.95
2022-11-29T09:09:06.533Z,5.93
2022-11-29T09:11:38.269Z,5.96
2022-11-29T09:14:08.639Z,6.08
2022-11-29T09:16:39.255Z,6.07
2022-11-29T09:19:15.499Z,6.02
2022-11-29T09:21:49.308Z,5.98
2022-11-29T09:24:19.665Z,5.80
2022-11-29T09:26:48.852Z,5.91
2022-11-29T09:29:18.515Z,5.95
2022-11-29T09:31:47.788Z,6.08
2022-11-29T09:34:20.427Z,6.07
2022-11-29T09:36:49.614Z,6.05
2022-11-29T09:39:21.354Z,6.03
2022-11-29T09:42:09.989Z,6.06
2022-11-29T09:44:49.600Z,6.06
2022-11-29T09:47:32.908Z,6.16
2022-11-29T09:50:12.601Z,6.10
2022-11-29T09:52:53.334Z,6.31
2022-11-29T09:55:47.713Z,6.34
2022-11-29T09:58:21.923Z,6.31
2022-11-29T10:00:54.971Z,6.38
2022-11-29T10:03:32.921Z,6.41
2022-11-29T10:06:08.826Z,6.40
2022-11-29T10:08:45.211Z,6.43
2022-11-29T10:11:23.098Z,6.48
2022-11-29T10:14:00.004Z,6.45
2022-11-29T10:16:40.129Z,6.55
2022-11-29T10:19:17.155Z,6.46
2022-11-29T10:21:59.095Z,6.43
2022-11-29T10:24:34.281Z,6.48
2022-11-29T10:27:04.435Z,6.50
2022-11-29T10:29:33.150Z,6.58
2022-11-29T10:32:09.991Z,6.70
2022-11-29T10:34:39.926Z,6.70
2022-11-29T10:37:17.549Z,6.73
2022-11-29T10:39:49.250Z,6.82
2022-11-29T10:42:37.222Z,6.79
2022-11-29T10:45:13.566Z,6.76
2022-11-29T10:47:42.481Z,6.75
2022-11-29T10:50:17.729Z,6.01
2022-11-29T10:52:47.851Z,6.84
2022-11-29T10:55:19.088Z,6.82
2022-11-29T10:58:11.474Z,7.07
2022-11-29T11:00:51.584Z,7.01
2022-11-29T11:03:37.867Z,6.94
2022-11-29T11:06:12.722Z,6.98
2022-11-29T11:08:45.277Z,7.13
2022-11-29T11:11:15.059Z,7.18
2022-11-29T11:13:59.872Z,7.08
2022-11-29T11:16:31.664Z,7.10
2022-11-29T11:19:29.218Z,7.05
2022-11-29T11:21:59.063Z,6.97
2022-11-29T11:24:32.283Z,7.09
2022-11-29T11:27:02.275Z,7.11
2022-11-29T11:29:37.022Z,7.08
2022-11-29T11:32:16.072Z,7.07
2022-11-29T11:34:53.007Z,7.06
2022-11-29T11:37:25.310Z,7.08
2022-11-29T11:39:57.464Z,6.99
2022-11-29T11:42:39.486Z,7.08
2022-11-29T11:45:28.911Z,7.18
2022-11-29T11:48:00.544Z,7.18
2022-11-29T11:50:35.047Z,7.25
2022-11-29T11:53:07.069Z,7.27
2022-11-29T11:55:42.586Z,7.29
2022-11-29T11:58:19.837Z,7.34
2022-11-29T12:01:06.571Z,7.33
2022-11-29T12:03:42.353Z,7.58
2022-11-29T12:06:36.486Z,7.52
2022-11-29T12:09:11.896Z,7.19
2022-11-29T12:11:47.003Z,7.37
2022-11-29T12:14:25.704Z,7.38
2022-11-29T12:17:20.247Z,7.21
2022-11-29T12:20:04.351Z,7.44
2022-11-29T12:22:43.905Z,7.40
2022-11-29T12:25:20.653Z,7.45
2022-11-29T12:27:51.754Z,7.43
2022-11-29T12:30:23.272Z,7.49
2022-11-29T12:33:11.247Z,7.48
2022-11-29T12:35:51.565Z,7.69
2022-11-29T12:38:36.161Z,7.65
2022-11-29T12:41:16.425Z,7.75
2022-11-29T12:43:56.931Z,7.87
2022-11-29T12:46:30.313Z,7.05
2022-11-29T12:49:06.259Z,7.51
2022-11-29T12:51:44.784Z,7.69
2022-11-29T12:54:29.317Z,7.69
2022-11-29T12:57:09.121Z,7.64
2022-11-29T12:59:57.176Z,7.76
2022-11-29T13:02:36.042Z,7.82
2022-11-29T13:05:17.890Z,7.76
2022-11-29T13:08:03.378Z,7.81
2022-11-29T13:10:37.128Z,7.82
2022-11-29T13:13:15.244Z,7.82
2022-11-29T13:15:53.388Z,8.32
2022-11-29T13:18:28.364Z,8.18
2022-11-29T13:21:02.496Z,8.16
2022-11-29T13:24:07.366Z,8.06
2022-11-29T13:26:31.187Z,7.83
2022-11-29T13:29:04.266Z,7.96
2022-11-29T13:31:35.319Z,8.13
2022-11-29T13:34:11.110Z,7.99
2022-11-29T13:36:48.488Z,8.00
2022-11-29T13:39:33.725Z,7.93
2022-11-29T13:42:10.544Z,7.96
2022-11-29T13:44:53.102Z,7.94
2022-11-29T13:47:26.961Z,7.94
2022-11-29T13:50:02.650Z,7.89
2022-11-29T13:52:49.801Z,7.94
2022-11-29T13:55:31.246Z,7.87
2022-11-29T13:58:22.235Z,7.84
2022-11-29T14:00:52.949Z,7.83
2022-11-29T14:03:36.325Z,8.12
2022-11-29T14:06:10.325Z,7.80
2022-11-29T14:09:10.851Z,7.76
2022-11-29T14:11:45.653Z,7.32
2022-11-29T14:14:29.023Z,7.77
2022-11-29T14:17:01.271Z,7.79
2022-11-29T14:19:34.315Z,7.78
2022-11-29T14:22:30.446Z,7.74
2022-11-29T14:25:50.489Z,7.78
2022-11-29T14:28:32.311Z,7.78
2022-11-29T14:31:02.660Z,7.78
2022-11-29T14:33:52.215Z,7.79
2022-11-29T14:36:47.543Z,7.63
2022-11-29T14:39:29.535Z,7.75
2022-11-29T14:42:14.495Z,7.73
2022-11-29T14:44:49.544Z,7.72
2022-11-29T14:47:29.931Z,7.82
2022-11-29T14:50:00.916Z,7.75
2022-11-29T14:52:33.876Z,7.58
2022-11-29T14:55:08.184Z,7.61
2022-11-29T14:58:16.263Z,7.62
2022-11-29T15:01:09.735Z,7.61
2022-11-29T15:03:50.769Z,7.60
2022-11-29T15:06:27.183Z,7.59
2022-11-29T15:09:04.192Z,7.57
2022-11-29T15:11:48.143Z,7.55
2022-11-29T15:14:30.621Z,7.57
2022-11-29T15:17:13.260Z,7.56
2022-11-29T15:20:00.203Z,7.28
2022-11-29T15:22:44.399Z,6.98
2022-11-29T15:25:19.508Z,7.58
2022-11-29T15:27:52.747Z,7.52
2022-11-29T15:30:28.639Z,7.56
2022-11-29T15:32:57.950Z,7.56
2022-11-29T15:35:26.874Z,7.46
2022-11-29T15:37:56.535Z,7.25
2022-11-29T15:40:34.567Z,7.33
2022-11-29T15:43:14.579Z,7.41
2022-11-29T15:45:49.029Z,7.36
2022-11-29T15:48:23.035Z,7.28
2022-11-29T15:51:05.569Z,7.31
2022-11-29T15:53:39.607Z,7.30
2022-11-29T15:56:16.474Z,7.27
2022-11-29T15:58:47.149Z,7.26
2022-11-29T16:01:21.801Z,7.23
2022-11-29T16:03:54.359Z,7.16
2022-11-29T16:06:28.528Z,7.16
2022-11-29T16:08:59.139Z,7.14
2022-11-29T16:11:32.704Z,7.12
2022-11-29T16:14:14.731Z,7.04
2022-11-29T16:16:46.279Z,7.08
2022-11-29T16:19:30.036Z,7.04
2022-11-29T16:22:15.313Z,6.98
2022-11-29T16:24:54.803Z,6.91
2022-11-29T16:27:26.178Z,6.88
2022-11-29T16:29:56.179Z,6.84
2022-11-29T16:32:28.838Z,6.92
2022-11-29T16:34:59.066Z,6.81
2022-11-29T16:37:32.337Z,6.76
2022-11-29T16:40:03.391Z,6.72
2022-11-29T16:42:34.415Z,5.26
2022-11-29T16:45:24.659Z,5.83
2022-11-29T16:47:58.482Z,6.56
2022-11-29T16:50:28.941Z,6.50
2022-11-29T16:53:17.900Z,6.45
2022-11-29T16:55:46.647Z,6.40
2022-11-29T16:58:17.968Z,6.37
2022-11-29T17:00:47.492Z,6.31
2022-11-29T17:03:16.552Z,6.27
2022-11-29T17:05:45.337Z,6.26
2022-11-29T17:08:14.392Z,6.20
2022-11-29T17:10:47.340Z,6.07
2022-11-29T17:13:17.928Z,6.12
2022-11-29T17:15:47.117Z,6.11
2022-11-29T17:18:16.189Z,6.07
2022-11-29T17:20:49.547Z,6.07
2022-11-29T17:23:19.585Z,6.03
2022-11-29T17:25:57.533Z,5.96
2022-11-29T17:28:27.614Z,5.97
2022-11-29T17:30:56.824Z,5.99
2022-11-29T17:33:25.545Z,5.94
2022-11-29T17:35:54.137Z,5.95
2022-11-29T17:38:23.071Z,5.90
2022-11-29T17:40:51.775Z,5.83
2022-11-29T17:43:20.515Z,5.72
2022-11-29T17:45:50.556Z,5.81
2022-11-29T17:48:19.808Z,5.66
2022-11-29T17:50:48.653Z,5.74
2022-11-29T17:53:19.808Z,5.76
2022-11-29T17:55:48.517Z,5.76
2022-11-29T17:58:17.173Z,5.71
2022-11-29T18:00:48.114Z,5.72
2022-11-29T18:03:18.294Z,5.70
2022-11-29T18:05:48.720Z,5.73
2022-11-29T18:08:18.050Z,5.72
2022-11-29T18:10:47.449Z,5.77
2022-11-29T18:13:16.157Z,5.78
2022-11-29T18:15:44.934Z,6.04
2022-11-29T18:18:13.676Z,6.01
2022-11-29T18:20:43.981Z,6.00
2022-11-29T18:23:12.916Z,5.87
2022-11-29T18:25:41.661Z,5.93
2022-11-29T18:28:14.012Z,5.96
2022-11-29T18:30:43.375Z,6.00
2022-11-29T18:33:12.379Z,6.02
2022-11-29T18:35:41.024Z,5.99
2022-11-29T18:38:16.090Z,5.97
2022-11-29T18:40:46.721Z,6.04
2022-11-29T18:43:18.108Z,5.86
2022-11-29T18:45:46.934Z,5.79
2022-11-29T18:48:15.692Z,5.74
2022-11-29T18:50:44.859Z,5.69
2022-11-29T18:53:15.395Z,5.66
2022-11-29T18:55:47.026Z,5.65
2022-11-29T18:58:17.364Z,5.68
2022-11-29T19:00:46.033Z,5.68
2022-11-29T19:03:15.884Z,5.69
2022-11-29T19:05:52.930Z,5.73
2022-11-29T19:08:23.226Z,5.79
2022-11-29T19:10:55.662Z,5.77
2022-11-29T19:13:24.374Z,5.77
2022-11-29T19:15:57.053Z,5.85
2022-11-29T19:18:29.758Z,5.75
2022-11-29T19:21:05.300Z,5.76
2022-11-29T19:23:36.604Z,6.04
2022-11-29T19:26:06.205Z,5.62
2022-11-29T19:28:36.679Z,6.15
2022-11-29T19:31:06.054Z,6.30
2022-11-29T19:33:36.539Z,4.98
2022-11-29T19:36:06.689Z,5.93
2022-11-29T19:38:40.181Z,5.86
2022-11-29T19:41:10.439Z,5.91
2022-11-29T19:43:39.562Z,5.95
2022-11-29T19:46:12.176Z,5.91
2022-11-29T19:48:41.743Z,6.09
2022-11-29T19:51:12.679Z,6.17
2022-11-29T19:53:46.031Z,6.27
2022-11-29T19:56:21.793Z,6.21
2022-11-29T19:58:51.736Z,6.31
2022-11-29T20:01:23.115Z,5.67
2022-11-29T20:03:56.611Z,5.69
2022-11-29T20:06:28.239Z,5.64
2022-11-29T20:08:59.279Z,5.69
2022-11-29T20:11:28.019Z,5.90
2022-11-29T20:13:58.862Z,5.92
2022-11-29T20:16:29.936Z,5.98
2022-11-29T20:19:02.042Z,6.05
2022-11-29T20:21:34.020Z,5.93
2022-11-29T20:24:07.096Z,5.96
2022-11-29T20:26:38.515Z,5.93
2022-11-29T20:29:10.075Z,5.92
2022-11-29T20:31:44.323Z,5.19
2022-11-29T20:34:19.707Z,5.89
2022-11-29T20:37:06.813Z,5.96
2022-11-29T20:39:47.135Z,5.95
2022-11-29T20:42:46.957Z,5.96
2022-11-29T20:45:20.788Z,5.95
2022-11-29T20:47:54.349Z,5.96
2022-11-29T20:50:25.380Z,5.98
2022-11-29T20:53:08.683Z,5.97
2022-11-29T20:55:44.840Z,5.96
2022-11-29T20:58:15.215Z,5.84
2022-11-29T21:00:44.135Z,5.97
2022-11-29T21:03:14.700Z,5.96
2022-11-29T21:05:44.165Z,5.96
2022-11-29T21:08:13.477Z,5.98
2022-11-29T21:10:44.373Z,6.01
2022-11-29T21:13:19.291Z,5.99
2022-11-29T21:15:49.346Z,6.01
2022-11-29T21:18:22.978Z,6.13
2022-11-29T21:21:03.737Z,6.16
2022-11-29T21:23:44.152Z,6.11
2022-11-29T21:26:18.139Z,6.09
2022-11-29T21:28:56.843Z,6.10
2022-11-29T21:31:26.783Z,5.97
2022-11-29T21:34:01.529Z,6.11
2022-11-29T21:36:33.736Z,6.10
2022-11-29T21:39:05.271Z,6.12
2022-11-29T21:41:39.012Z,6.15
2022-11-29T21:44:08.461Z,6.15
2022-11-29T21:46:38.008Z,6.32
2022-11-29T21:49:06.957Z,6.21
2022-11-29T21:52:07.450Z,6.35
2022-11-29T21:54:36.484Z,6.52
2022-11-29T21:57:10.154Z,6.54
2022-11-29T21:59:41.374Z,6.74
2022-11-29T22:02:10.507Z,6.75
2022-11-29T22:04:39.996Z,6.72
2022-11-29T22:07:08.721Z,6.85
2022-11-29T22:09:37.560Z,6.82
2022-11-29T22:12:26.224Z,6.80
2022-11-29T22:14:57.308Z,6.95
2022-11-29T22:17:26.947Z,6.85
2022-11-29T22:19:59.289Z,6.76
2022-11-29T22:22:28.508Z,6.71
2022-11-29T22:24:57.192Z,5.95
2022-11-29T22:27:26.165Z,6.62
2022-11-29T22:29:54.973Z,6.55
2022-11-29T22:32:26.027Z,6.50
2022-11-29T22:34:54.903Z,6.56
2022-11-29T22:37:23.830Z,6.55
2022-11-29T22:39:52.864Z,6.64
2022-11-29T22:42:21.733Z,6.77
2022-11-29T22:44:50.653Z,6.75
2022-11-29T22:47:19.521Z,6.67
2022-11-29T22:49:52.859Z,5.96
2022-11-29T22:52:21.883Z,6.60
2022-11-29T22:54:53.321Z,6.69
2022-11-29T22:57:24.563Z,6.77
2022-11-29T22:59:53.372Z,6.74
2022-11-29T23:02:25.865Z,6.70
2022-11-29T23:04:56.380Z,6.74
2022-11-29T23:07:25.872Z,6.65
2022-11-29T23:09:56.105Z,6.61
2022-11-29T23:12:25.220Z,6.63
2022-11-29T23:14:56.645Z,6.47
2022-11-29T23:17:26.428Z,6.55
2022-11-29T23:19:56.728Z,6.66
2022-11-29T23:22:26.089Z,6.50
2022-11-29T23:24:57.375Z,6.52
2022-11-29T23:27:26.551Z,6.64
2022-11-29T23:29:55.519Z,6.48
2022-11-29T23:32:24.908Z,6.56
2022-11-29T23:34:57.885Z,6.50
2022-11-29T23:37:27.989Z,6.32
2022-11-29T23:39:57.114Z,6.27
2022-11-29T23:42:27.182Z,6.59
2022-11-29T23:44:56.202Z,6.76
2022-11-29T23:47:26.250Z,6.65
2022-11-29T23:49:55.031Z,6.53
2022-11-29T23:52:25.939Z,6.46
2022-11-29T23:54:54.831Z,6.57
2022-11-29T23:57:23.672Z,6.83
2022-11-29T23:59:53.154Z,6.66
